Bl Darnell — WDE5130 — position and weather

sailwx.info

Track history (hours):
 
Tides and Currents Weather Stations Pressure Air Temp Water Temp Dewpoint Dewpoint Depression Visibility Wind Speed Wind Dir Waves Ship Positions

Bl Darnell

Owner: The Tug BL Darnell, L.L.C., Channelview, TX. More information available from US FCC via Universal Licensing System and Coast Guard Vessel Documentation Center.

Last reported at 2017-Oct-20 12:30 UTC. Time now 2017-Oct-20 12:48 UTC.
Position N 29°44' W 095°01'.

Length 22 m.

Type: Other ship. MMSI: 367362460.

Date/timePositionNaut miles runAvg speedWind from/ knotsBaromVisibWave heightAir tempDewpointWater temp
2017-Oct-20 12:30N 29°44' W 095°01'0 0.0
2017-Oct-20 12:00N 29°44' W 095°01'0 0.0
2017-Oct-20 11:30N 29°44' W 095°01'0 0.0
2017-Oct-20 11:00N 29°44' W 095°01'0 0.0
2017-Oct-20 10:30N 29°44' W 095°01'0 0.0
2017-Oct-20 10:00N 29°44' W 095°01'0 0.0
2017-Oct-20 09:30N 29°44' W 095°01'0 0.0
2017-Oct-20 09:01N 29°44' W 095°01'0 0.0
2017-Oct-20 08:30N 29°44' W 095°01'0 0.0
2017-Oct-20 08:00N 29°44' W 095°01'0 0.0
2017-Oct-20 07:31N 29°44' W 095°01'0 0.0
2017-Oct-20 07:00N 29°44' W 095°01'0 0.0
2017-Oct-20 06:30N 29°44' W 095°01'0 0.0
2017-Oct-20 06:00N 29°44' W 095°01'0 0.0
2017-Oct-20 05:30N 29°44' W 095°01'0 0.0
2017-Oct-20 05:01N 29°44' W 095°01'0 0.0
2017-Oct-20 04:30N 29°44' W 095°01'0 0.0
2017-Oct-20 04:00N 29°44' W 095°01'0 0.0
2017-Oct-20 03:30N 29°44' W 095°01'0 0.0
2017-Oct-20 03:01N 29°44' W 095°01'0 0.0
2017-Oct-20 02:30N 29°44' W 095°01'0 0.0
2017-Oct-20 02:00N 29°44' W 095°01'0 0.0
2017-Oct-20 01:30N 29°44' W 095°01'0 0.0
2017-Oct-20 01:00N 29°44' W 095°01'0 0.0
2017-Oct-20 00:30N 29°44' W 095°01'0 0.0
2017-Oct-20 00:00N 29°44' W 095°01'0 0.0
2017-Oct-19 23:30N 29°44' W 095°01'0 0.0
2017-Oct-19 23:01N 29°44' W 095°01'0 0.0
2017-Oct-19 22:30N 29°44' W 095°01'0 0.0
2017-Oct-19 22:00N 29°44' W 095°01'0 0.0
2017-Oct-19 21:30N 29°44' W 095°01'0 0.0
2017-Oct-19 21:00N 29°44' W 095°01'0 0.0
2017-Oct-19 20:31N 29°44' W 095°01'0 0.0
2017-Oct-19 20:00N 29°44' W 095°01'0 0.0
2017-Oct-19 19:30N 29°44' W 095°01'0 0.0
2017-Oct-19 19:00N 29°44' W 095°01'0 0.0
2017-Oct-19 18:30N 29°44' W 095°01'0 0.0
2017-Oct-19 18:00N 29°44' W 095°01'0 0.0
2017-Oct-19 17:30N 29°44' W 095°01'0 0.0
2017-Oct-19 17:00N 29°44' W 095°01'0 0.0
2017-Oct-19 16:30N 29°44' W 095°01'0 0.0
2017-Oct-19 16:01N 29°44' W 095°01'0 0.0
2017-Oct-19 15:31N 29°44' W 095°01'0 0.1
2017-Oct-19 14:54N 29°44' W 095°01'0 0.1
2017-Oct-19 11:26N 29°44' W 095°01'0 0.4
2017-Oct-19 10:59N 29°44' W 095°01'0 0.2
2017-Oct-19 10:11N 29°44' W 095°01'0 0.0
2017-Oct-19 09:45N 29°44' W 095°01'0 0.0
2017-Oct-19 09:30N 29°44' W 095°01'0 0.0
2017-Oct-19 08:59N 29°44' W 095°01'0 0.0
2017-Oct-19 08:24N 29°44' W 095°01'0 0.0
2017-Oct-19 07:51N 29°44' W 095°01'0 0.0
2017-Oct-19 07:26N 29°44' W 095°01'0 1.1
2017-Oct-19 07:00N 29°43' W 095°01'1 2.2
2017-Oct-19 06:31N 29°44' W 095°02'3 0.3
2017-Oct-18 20:03N 29°46' W 095°05'0 0.5
2017-Oct-18 19:07N 29°45' W 095°06'0 0.1
2017-Oct-18 14:56N 29°46' W 095°05'0 0.3
2017-Oct-18 13:59N 29°46' W 095°05'1 0.1
2017-Oct-18 05:30N 29°45' W 095°06'0 0.0
2017-Oct-18 04:56N 29°45' W 095°06'0 0.3
2017-Oct-18 04:30N 29°45' W 095°06'1 2.4
2017-Oct-18 03:58N 29°46' W 095°06'1 0.1
2017-Oct-17 19:57N 29°46' W 095°05'1 0.1
2017-Oct-17 08:22N 29°46' W 095°06'2 2.1
2017-Oct-17 07:34N 29°47' W 095°04'1 3.9
2017-Oct-17 07:20N 29°46' W 095°05'2 4.6
2017-Oct-17 06:59N 29°45' W 095°06'2 1.5
2017-Oct-17 06:00N 29°44' W 095°08'0 0.3
2017-Oct-17 04:46N 29°44' W 095°08'2 7.1
2017-Oct-17 04:29N 29°45' W 095°10'3 7.0
2017-Oct-17 04:00N 29°44' W 095°14'1 2.9
2017-Oct-17 03:30N 29°43' W 095°15'0 0.0
2017-Oct-17 02:59N 29°43' W 095°15'1 3.0
2017-Oct-17 02:30N 29°44' W 095°14'3 5.1
2017-Oct-17 01:58N 29°45' W 095°11'3 5.5
2017-Oct-17 01:30N 29°44' W 095°08'2 3.0
2017-Oct-17 00:44N 29°45' W 095°06'1 0.1
2017-Oct-16 08:15N 29°46' W 095°06'0 0.0
2017-Oct-16 06:02N 29°46' W 095°06'0 0.2
2017-Oct-16 06:00N 29°46' W 095°06'0 0.0
2017-Oct-16 05:31N 29°46' W 095°06'0 0.0
2017-Oct-16 05:01N 29°46' W 095°06'0 0.0
2017-Oct-16 04:31N 29°46' W 095°06'0 0.0
2017-Oct-16 04:00N 29°46' W 095°06'0 0.0
2017-Oct-16 03:31N 29°46' W 095°06'0 0.0
2017-Oct-16 03:00N 29°46' W 095°06'0 0.0
2017-Oct-16 02:25N 29°46' W 095°06'1 0.8
2017-Oct-16 01:36N 29°46' W 095°05'1 0.0
2017-Oct-15 11:13N 29°45' W 095°06'3 2.8
2017-Oct-15 10:18N 29°47' W 095°04'2 0.3
2017-Oct-15 01:28N 29°46' W 095°06'5 1.2
2017-Oct-14 21:34N 29°45' W 095°11'1 6.3
2017-Oct-14 21:29N 29°45' W 095°11'1 0.7
2017-Oct-14 20:44N 29°45' W 095°10'1 4.7
2017-Oct-14 20:29N 29°44' W 095°09'3 6.4
2017-Oct-14 19:56N 29°46' W 095°05'1 0.3
2017-Oct-14 17:21N 29°46' W 095°06'1 0.2
2017-Oct-14 11:02N 29°45' W 095°06'0 7.0
2017-Oct-14 10:59N 29°46' W 095°05'1 1.8
2017-Oct-14 10:30N 29°46' W 095°06'0 0.0
2017-Oct-14 10:00N 29°46' W 095°06'0 0.0
2017-Oct-14 09:30N 29°46' W 095°06'0 0.0
2017-Oct-14 09:00N 29°46' W 095°06'0 0.0
2017-Oct-14 08:30N 29°46' W 095°06'0 0.0
2017-Oct-14 08:00N 29°46' W 095°06'0 0.0
2017-Oct-14 07:30N 29°46' W 095°06'0 0.0
2017-Oct-14 07:00N 29°46' W 095°06'0 0.0
2017-Oct-14 06:30N 29°46' W 095°06'0 0.0
2017-Oct-14 06:00N 29°46' W 095°06'0 0.0
2017-Oct-14 05:30N 29°46' W 095°06'0 0.0
2017-Oct-14 05:00N 29°46' W 095°06'1 0.4
2017-Oct-14 02:11N 29°45' W 095°06'1 4.4
2017-Oct-14 01:57N 29°46' W 095°06'0 0.0
2017-Oct-14 01:26N 29°46' W 095°06'0 0.0
2017-Oct-14 00:45N 29°46' W 095°06'0 0.0
2017-Oct-14 00:27N 29°46' W 095°06'0 0.0
2017-Oct-13 23:49N 29°46' W 095°06'0 0.0
2017-Oct-13 23:28N 29°46' W 095°06'0 0.0
2017-Oct-13 23:00N 29°46' W 095°06'0 0.0
2017-Oct-13 22:30N 29°46' W 095°06'0 0.0
2017-Oct-13 22:00N 29°46' W 095°06'1 0.9
2017-Oct-13 21:27N 29°46' W 095°06'4 2.9
2017-Oct-13 20:07N 29°45' W 095°10'1 6.3
2017-Oct-13 19:59N 29°44' W 095°09'3 6.0
2017-Oct-13 19:30N 29°45' W 095°06'1 0.5
2017-Oct-13 18:09N 29°44' W 095°07'4 1.4
2017-Oct-13 15:22N 29°45' W 095°11'2 5.9
2017-Oct-13 15:00N 29°44' W 095°09'3 6.1
2017-Oct-13 14:30N 29°45' W 095°06'1 0.1
2017-Oct-13 01:35N 29°46' W 095°06'1 4.7
2017-Oct-13 01:28N 29°46' W 095°05'3 6.5
2017-Oct-13 01:00N 29°44' W 095°08'4 6.9
2017-Oct-13 00:28N 29°44' W 095°12'3 6.7
2017-Oct-13 00:00N 29°43' W 095°16'1 2.3
2017-Oct-12 23:24N 29°45' W 095°17'0 0.2
2017-Oct-12 23:00N 29°45' W 095°17'0 0.0
2017-Oct-12 22:30N 29°45' W 095°17'0 0.0
2017-Oct-12 22:00N 29°45' W 095°17'0 0.0
2017-Oct-12 21:30N 29°45' W 095°17'0 0.0
2017-Oct-12 21:00N 29°45' W 095°17'0 0.0
2017-Oct-12 20:30N 29°45' W 095°17'0 0.0
2017-Oct-12 20:00N 29°45' W 095°17'1 2.8
2017-Oct-12 19:30N 29°44' W 095°16'3 5.1
2017-Oct-12 18:55N 29°44' W 095°13'2 5.2
2017-Oct-12 18:30N 29°45' W 095°11'3 5.0
2017-Oct-12 18:00N 29°44' W 095°08'3 1.1
2017-Oct-12 15:41N 29°46' W 095°06'0 0.0
2017-Oct-12 15:30N 29°46' W 095°06'0 0.0
2017-Oct-12 15:00N 29°46' W 095°06'0 0.0
2017-Oct-12 14:30N 29°46' W 095°06'0 0.0
2017-Oct-12 14:00N 29°46' W 095°06'0 0.0
2017-Oct-12 13:30N 29°46' W 095°06'0 0.0
2017-Oct-12 13:00N 29°46' W 095°06'0 0.0
2017-Oct-12 12:30N 29°46' W 095°06'0 0.0
2017-Oct-12 12:00N 29°46' W 095°06'0 0.0
2017-Oct-12 11:30N 29°46' W 095°06'0 0.0
2017-Oct-12 11:00N 29°46' W 095°06'0 0.0
2017-Oct-12 10:30N 29°46' W 095°06'1 0.7
2017-Oct-12 08:58N 29°46' W 095°05'3 5.7
2017-Oct-12 08:30N 29°44' W 095°07'0 0.8
2017-Oct-12 08:00N 29°44' W 095°08'2 4.2
2017-Oct-12 07:30N 29°45' W 095°06'2 4.1
2017-Oct-12 06:54N 29°47' W 095°04'2 3.6
2017-Oct-12 06:26N 29°46' W 095°05'3 6.0
2017-Oct-12 05:58N 29°44' W 095°07'2 4.5
2017-Oct-12 05:26N 29°45' W 095°10'0 0.9
2017-Oct-12 05:00N 29°45' W 095°10'3 5.9
2017-Oct-12 04:30N 29°45' W 095°07'2 1.3
2017-Oct-12 03:06N 29°46' W 095°06'0 0.0
2017-Oct-12 03:00N 29°46' W 095°06'0 0.5
2017-Oct-12 02:30N 29°46' W 095°06'2 3.2
2017-Oct-12 01:48N 29°47' W 095°04'1 1.7
2017-Oct-12 01:24N 29°47' W 095°04'2 4.2
2017-Oct-12 01:00N 29°45' W 095°05'  
Track history (hours):
 
Tides and Currents Weather Stations Pressure Air Temp Water Temp Dewpoint Dewpoint Depression Visibility Wind Speed Wind Dir Waves Ship Positions

Bl Darnell

Owner: The Tug BL Darnell, L.L.C., Channelview, TX. More information available from US FCC via Universal Licensing System and Coast Guard Vessel Documentation Center.

Last reported at 2017-Oct-20 12:30 UTC. Time now 2017-Oct-20 12:48 UTC.
Position N 29°44' W 095°01'.

Length 22 m.

Type: Other ship. MMSI: 367362460.

Date/timePositionNaut miles runAvg speedWind from/ knotsBaromVisibWave heightAir tempDewpointWater temp
2017-Oct-20 12:30N 29°44' W 095°01'0 0.0
2017-Oct-20 12:00N 29°44' W 095°01'0 0.0
2017-Oct-20 11:30N 29°44' W 095°01'0 0.0
2017-Oct-20 11:00N 29°44' W 095°01'0 0.0
2017-Oct-20 10:30N 29°44' W 095°01'0 0.0
2017-Oct-20 10:00N 29°44' W 095°01'0 0.0
2017-Oct-20 09:30N 29°44' W 095°01'0 0.0
2017-Oct-20 09:01N 29°44' W 095°01'0 0.0
2017-Oct-20 08:30N 29°44' W 095°01'0 0.0
2017-Oct-20 08:00N 29°44' W 095°01'0 0.0
2017-Oct-20 07:31N 29°44' W 095°01'0 0.0
2017-Oct-20 07:00N 29°44' W 095°01'0 0.0
2017-Oct-20 06:30N 29°44' W 095°01'0 0.0
2017-Oct-20 06:00N 29°44' W 095°01'0 0.0
2017-Oct-20 05:30N 29°44' W 095°01'0 0.0
2017-Oct-20 05:01N 29°44' W 095°01'0 0.0
2017-Oct-20 04:30N 29°44' W 095°01'0 0.0
2017-Oct-20 04:00N 29°44' W 095°01'0 0.0
2017-Oct-20 03:30N 29°44' W 095°01'0 0.0
2017-Oct-20 03:01N 29°44' W 095°01'0 0.0
2017-Oct-20 02:30N 29°44' W 095°01'0 0.0
2017-Oct-20 02:00N 29°44' W 095°01'0 0.0
2017-Oct-20 01:30N 29°44' W 095°01'0 0.0
2017-Oct-20 01:00N 29°44' W 095°01'0 0.0
2017-Oct-20 00:30N 29°44' W 095°01'0 0.0
2017-Oct-20 00:00N 29°44' W 095°01'0 0.0
2017-Oct-19 23:30N 29°44' W 095°01'0 0.0
2017-Oct-19 23:01N 29°44' W 095°01'0 0.0
2017-Oct-19 22:30N 29°44' W 095°01'0 0.0
2017-Oct-19 22:00N 29°44' W 095°01'0 0.0
2017-Oct-19 21:30N 29°44' W 095°01'0 0.0
2017-Oct-19 21:00N 29°44' W 095°01'0 0.0
2017-Oct-19 20:31N 29°44' W 095°01'0 0.0
2017-Oct-19 20:00N 29°44' W 095°01'0 0.0
2017-Oct-19 19:30N 29°44' W 095°01'0 0.0
2017-Oct-19 19:00N 29°44' W 095°01'0 0.0
2017-Oct-19 18:30N 29°44' W 095°01'0 0.0
2017-Oct-19 18:00N 29°44' W 095°01'0 0.0
2017-Oct-19 17:30N 29°44' W 095°01'0 0.0
2017-Oct-19 17:00N 29°44' W 095°01'0 0.0
2017-Oct-19 16:30N 29°44' W 095°01'0 0.0
2017-Oct-19 16:01N 29°44' W 095°01'0 0.0
2017-Oct-19 15:31N 29°44' W 095°01'0 0.1
2017-Oct-19 14:54N 29°44' W 095°01'0 0.1
2017-Oct-19 11:26N 29°44' W 095°01'0 0.4
2017-Oct-19 10:59N 29°44' W 095°01'0 0.2
2017-Oct-19 10:11N 29°44' W 095°01'0 0.0
2017-Oct-19 09:45N 29°44' W 095°01'0 0.0
2017-Oct-19 09:30N 29°44' W 095°01'0 0.0
2017-Oct-19 08:59N 29°44' W 095°01'0 0.0
2017-Oct-19 08:24N 29°44' W 095°01'0 0.0
2017-Oct-19 07:51N 29°44' W 095°01'0 0.0
2017-Oct-19 07:26N 29°44' W 095°01'0 1.1
2017-Oct-19 07:00N 29°43' W 095°01'1 2.2
2017-Oct-19 06:31N 29°44' W 095°02'3 0.3
2017-Oct-18 20:03N 29°46' W 095°05'0 0.5
2017-Oct-18 19:07N 29°45' W 095°06'0 0.1
2017-Oct-18 14:56N 29°46' W 095°05'0 0.3
2017-Oct-18 13:59N 29°46' W 095°05'1 0.1
2017-Oct-18 05:30N 29°45' W 095°06'0 0.0
2017-Oct-18 04:56N 29°45' W 095°06'0 0.3
2017-Oct-18 04:30N 29°45' W 095°06'1 2.4
2017-Oct-18 03:58N 29°46' W 095°06'1 0.1
2017-Oct-17 19:57N 29°46' W 095°05'1 0.1
2017-Oct-17 08:22N 29°46' W 095°06'2 2.1
2017-Oct-17 07:34N 29°47' W 095°04'1 3.9
2017-Oct-17 07:20N 29°46' W 095°05'2 4.6
2017-Oct-17 06:59N 29°45' W 095°06'2 1.5
2017-Oct-17 06:00N 29°44' W 095°08'0 0.3
2017-Oct-17 04:46N 29°44' W 095°08'2 7.1
2017-Oct-17 04:29N 29°45' W 095°10'3 7.0
2017-Oct-17 04:00N 29°44' W 095°14'1 2.9
2017-Oct-17 03:30N 29°43' W 095°15'0 0.0
2017-Oct-17 02:59N 29°43' W 095°15'1 3.0
2017-Oct-17 02:30N 29°44' W 095°14'3 5.1
2017-Oct-17 01:58N 29°45' W 095°11'3 5.5
2017-Oct-17 01:30N 29°44' W 095°08'2 3.0
2017-Oct-17 00:44N 29°45' W 095°06'1 0.1
2017-Oct-16 08:15N 29°46' W 095°06'0 0.0
2017-Oct-16 06:02N 29°46' W 095°06'0 0.2
2017-Oct-16 06:00N 29°46' W 095°06'0 0.0
2017-Oct-16 05:31N 29°46' W 095°06'0 0.0
2017-Oct-16 05:01N 29°46' W 095°06'0 0.0
2017-Oct-16 04:31N 29°46' W 095°06'0 0.0
2017-Oct-16 04:00N 29°46' W 095°06'0 0.0
2017-Oct-16 03:31N 29°46' W 095°06'0 0.0
2017-Oct-16 03:00N 29°46' W 095°06'0 0.0
2017-Oct-16 02:25N 29°46' W 095°06'1 0.8
2017-Oct-16 01:36N 29°46' W 095°05'1 0.0
2017-Oct-15 11:13N 29°45' W 095°06'3 2.8
2017-Oct-15 10:18N 29°47' W 095°04'2 0.3
2017-Oct-15 01:28N 29°46' W 095°06'5 1.2
2017-Oct-14 21:34N 29°45' W 095°11'1 6.3
2017-Oct-14 21:29N 29°45' W 095°11'1 0.7
2017-Oct-14 20:44N 29°45' W 095°10'1 4.7
2017-Oct-14 20:29N 29°44' W 095°09'3 6.4
2017-Oct-14 19:56N 29°46' W 095°05'1 0.3
2017-Oct-14 17:21N 29°46' W 095°06'1 0.2
2017-Oct-14 11:02N 29°45' W 095°06'0 7.0
2017-Oct-14 10:59N 29°46' W 095°05'1 1.8
2017-Oct-14 10:30N 29°46' W 095°06'0 0.0
2017-Oct-14 10:00N 29°46' W 095°06'0 0.0
2017-Oct-14 09:30N 29°46' W 095°06'0 0.0
2017-Oct-14 09:00N 29°46' W 095°06'0 0.0
2017-Oct-14 08:30N 29°46' W 095°06'0 0.0
2017-Oct-14 08:00N 29°46' W 095°06'0 0.0
2017-Oct-14 07:30N 29°46' W 095°06'0 0.0
2017-Oct-14 07:00N 29°46' W 095°06'0 0.0
2017-Oct-14 06:30N 29°46' W 095°06'0 0.0
2017-Oct-14 06:00N 29°46' W 095°06'0 0.0
2017-Oct-14 05:30N 29°46' W 095°06'0 0.0
2017-Oct-14 05:00N 29°46' W 095°06'1 0.4
2017-Oct-14 02:11N 29°45' W 095°06'1 4.4
2017-Oct-14 01:57N 29°46' W 095°06'0 0.0
2017-Oct-14 01:26N 29°46' W 095°06'0 0.0
2017-Oct-14 00:45N 29°46' W 095°06'0 0.0
2017-Oct-14 00:27N 29°46' W 095°06'0 0.0
2017-Oct-13 23:49N 29°46' W 095°06'0 0.0
2017-Oct-13 23:28N 29°46' W 095°06'0 0.0
2017-Oct-13 23:00N 29°46' W 095°06'0 0.0
2017-Oct-13 22:30N 29°46' W 095°06'0 0.0
2017-Oct-13 22:00N 29°46' W 095°06'1 0.9
2017-Oct-13 21:27N 29°46' W 095°06'4 2.9
2017-Oct-13 20:07N 29°45' W 095°10'1 6.3
2017-Oct-13 19:59N 29°44' W 095°09'3 6.0
2017-Oct-13 19:30N 29°45' W 095°06'1 0.5
2017-Oct-13 18:09N 29°44' W 095°07'4 1.4
2017-Oct-13 15:22N 29°45' W 095°11'2 5.9
2017-Oct-13 15:00N 29°44' W 095°09'3 6.1
2017-Oct-13 14:30N 29°45' W 095°06'1 0.1
2017-Oct-13 01:35N 29°46' W 095°06'1 4.7
2017-Oct-13 01:28N 29°46' W 095°05'3 6.5
2017-Oct-13 01:00N 29°44' W 095°08'4 6.9
2017-Oct-13 00:28N 29°44' W 095°12'3 6.7
2017-Oct-13 00:00N 29°43' W 095°16'1 2.3
2017-Oct-12 23:24N 29°45' W 095°17'0 0.2
2017-Oct-12 23:00N 29°45' W 095°17'0 0.0
2017-Oct-12 22:30N 29°45' W 095°17'0 0.0
2017-Oct-12 22:00N 29°45' W 095°17'0 0.0
2017-Oct-12 21:30N 29°45' W 095°17'0 0.0
2017-Oct-12 21:00N 29°45' W 095°17'0 0.0
2017-Oct-12 20:30N 29°45' W 095°17'0 0.0
2017-Oct-12 20:00N 29°45' W 095°17'1 2.8
2017-Oct-12 19:30N 29°44' W 095°16'3 5.1
2017-Oct-12 18:55N 29°44' W 095°13'2 5.2
2017-Oct-12 18:30N 29°45' W 095°11'3 5.0
2017-Oct-12 18:00N 29°44' W 095°08'3 1.1
2017-Oct-12 15:41N 29°46' W 095°06'0 0.0
2017-Oct-12 15:30N 29°46' W 095°06'0 0.0
2017-Oct-12 15:00N 29°46' W 095°06'0 0.0
2017-Oct-12 14:30N 29°46' W 095°06'0 0.0
2017-Oct-12 14:00N 29°46' W 095°06'0 0.0
2017-Oct-12 13:30N 29°46' W 095°06'0 0.0
2017-Oct-12 13:00N 29°46' W 095°06'0 0.0
2017-Oct-12 12:30N 29°46' W 095°06'0 0.0
2017-Oct-12 12:00N 29°46' W 095°06'0 0.0
2017-Oct-12 11:30N 29°46' W 095°06'0 0.0
2017-Oct-12 11:00N 29°46' W 095°06'0 0.0
2017-Oct-12 10:30N 29°46' W 095°06'1 0.7
2017-Oct-12 08:58N 29°46' W 095°05'3 5.7
2017-Oct-12 08:30N 29°44' W 095°07'0 0.8
2017-Oct-12 08:00N 29°44' W 095°08'2 4.2
2017-Oct-12 07:30N 29°45' W 095°06'2 4.1
2017-Oct-12 06:54N 29°47' W 095°04'2 3.6
2017-Oct-12 06:26N 29°46' W 095°05'3 6.0
2017-Oct-12 05:58N 29°44' W 095°07'2 4.5
2017-Oct-12 05:26N 29°45' W 095°10'0 0.9
2017-Oct-12 05:00N 29°45' W 095°10'3 5.9
2017-Oct-12 04:30N 29°45' W 095°07'2 1.3
2017-Oct-12 03:06N 29°46' W 095°06'0 0.0
2017-Oct-12 03:00N 29°46' W 095°06'0 0.5
2017-Oct-12 02:30N 29°46' W 095°06'2 3.2
2017-Oct-12 01:48N 29°47' W 095°04'1 1.7
2017-Oct-12 01:24N 29°47' W 095°04'2 4.2
2017-Oct-12 01:00N 29°45' W 095°05'  

Dump ship's entire track history